Aviation Digital Data Service (ADDS)

Output produced by METARs form (1114 UTC 19 January 2019)
found at http://www.aviationweather.gov/metar/data/
 
MZBZ 191100Z 31003KT 9999 BKN046 23/22 A2994 Q1014 NOSIG
TAF MZBZ 191100Z 1912/2012 11010KT 9999 SCT022 SCT045 
     BECMG 2004/2006 04007KT 
     PROB30 
     TEMPO 2006/2012 4000 SHRA BKN014